Time;durP1;ratioP1;P1;durP2;ratioP2;P2;SDS_P1;SDS_P2;PMS_P1;PMS_P2;Temp;Humidity;BMP_temperature;BMP_pressure;BME280_temperature;BME280_humidity;BME280_pressure;Samples;Min_cycle;Max_cycle;Signal;HPM_P1;HPM_P2
2023/12/06 00:00:44;;;;;;;38.83;15.50;;;;;;;1.98;93.07;100627.59;5127908;27;20598;-62
2023/12/06 00:03:09;;;;;;;35.15;13.43;;;;;;;1.97;92.94;100631.00;5127992;27;20097;-62
2023/12/06 00:05:35;;;;;;;37.10;15.37;;;;;;;2.01;93.39;100632.13;5127582;27;20035;-63
2023/12/06 00:08:00;;;;;;;36.27;15.10;;;;;;;2.00;93.32;100625.09;5127828;27;20080;-63
2023/12/06 00:10:25;;;;;;;39.10;16.10;;;;;;;2.00;93.17;100620.81;5127271;27;20168;-62
2023/12/06 00:12:51;;;;;;;37.83;15.63;;;;;;;2.05;93.62;100624.63;5127890;27;20127;-63
2023/12/06 00:15:16;;;;;;;33.83;15.10;;;;;;;2.04;93.33;100621.91;5127582;27;20027;-62
2023/12/06 00:17:42;;;;;;;29.33;12.83;;;;;;;2.01;93.58;100617.41;5127741;27;20035;-63
2023/12/06 00:20:07;;;;;;;40.13;14.77;;;;;;;2.00;93.71;100610.38;5126971;27;20399;-63
2023/12/06 00:22:33;;;;;;;37.05;14.80;;;;;;;2.01;92.98;100617.41;5127402;27;20053;-62
2023/12/06 00:24:58;;;;;;;41.93;15.27;;;;;;;2.02;93.37;100618.31;5127552;27;20067;-61
2023/12/06 00:27:24;;;;;;;36.43;14.80;;;;;;;2.04;93.48;100617.63;5127441;28;20467;-59
2023/12/06 00:29:49;;;;;;;34.63;15.00;;;;;;;2.08;93.72;100622.25;5127052;27;20032;-60
2023/12/06 00:32:14;;;;;;;36.67;14.77;;;;;;;2.09;93.45;100613.63;5127395;27;20393;-62
2023/12/06 00:34:40;;;;;;;39.70;16.83;;;;;;;2.08;93.32;100624.84;5127331;27;20114;-62
2023/12/06 00:37:05;;;;;;;36.13;14.93;;;;;;;2.10;93.78;100614.56;5119548;27;20122;-61
2023/12/06 00:39:31;;;;;;;36.57;14.23;;;;;;;2.11;93.33;100622.47;5113170;28;20028;-64
2023/12/06 00:41:56;;;;;;;36.22;14.57;;;;;;;2.10;93.48;100627.56;5113552;28;20063;-62
2023/12/06 00:44:21;;;;;;;45.53;16.87;;;;;;;2.09;94.09;100628.38;5113363;28;20578;-62
2023/12/06 00:46:47;;;;;;;40.50;15.40;;;;;;;2.09;94.27;100629.28;5113473;28;20077;-63
2023/12/06 00:49:12;;;;;;;37.23;14.63;;;;;;;2.11;94.03;100632.00;5105096;28;20575;-60
2023/12/06 00:51:38;;;;;;;36.55;14.80;;;;;;;2.12;94.02;100619.06;5093061;28;20036;-61
2023/12/06 00:54:03;;;;;;;39.20;14.63;;;;;;;2.14;93.94;100630.50;5093416;28;20407;-63
2023/12/06 00:56:28;;;;;;;39.23;14.90;;;;;;;2.18;93.61;100626.41;5093569;28;20173;-60
2023/12/06 00:58:54;;;;;;;35.17;14.57;;;;;;;2.19;93.90;100633.44;5092865;28;20035;-60
2023/12/06 01:01:19;;;;;;;33.47;14.90;;;;;;;2.20;93.85;100637.88;5093071;28;20119;-60
2023/12/06 01:03:44;;;;;;;36.03;15.10;;;;;;;2.22;94.04;100630.16;5093108;28;20036;-60
2023/12/06 01:06:10;;;;;;;37.87;15.00;;;;;;;2.21;93.94;100629.25;5092774;28;20111;-62
2023/12/06 01:08:35;;;;;;;37.83;14.80;;;;;;;2.21;93.97;100630.97;5092000;28;20059;-62
2023/12/06 01:11:00;;;;;;;40.57;15.27;;;;;;;2.20;94.03;100631.75;5092716;28;20047;-62
2023/12/06 01:13:26;;;;;;;38.67;15.90;;;;;;;2.22;94.24;100637.97;5092575;28;20531;-62
2023/12/06 01:15:51;;;;;;;36.95;14.88;;;;;;;2.22;94.07;100633.66;5092473;28;20048;-61
2023/12/06 01:18:17;;;;;;;39.30;15.90;;;;;;;2.21;94.23;100636.16;5091977;28;20510;-61
2023/12/06 01:20:42;;;;;;;40.13;15.70;;;;;;;2.20;93.96;100649.97;5092162;28;20075;-61
2023/12/06 01:23:07;;;;;;;37.47;14.37;;;;;;;2.21;94.39;100643.97;5092282;28;20111;-62
2023/12/06 01:25:33;;;;;;;38.33;14.80;;;;;;;2.24;94.40;100652.00;5092011;28;20036;-61
2023/12/06 01:27:58;;;;;;;36.40;14.27;;;;;;;2.23;93.70;100651.09;5092220;28;20054;-62
2023/12/06 01:30:24;;;;;;;40.00;14.93;;;;;;;2.23;94.35;100658.00;5091882;28;20044;-61
2023/12/06 01:32:49;;;;;;;37.10;14.10;;;;;;;2.26;93.91;100650.44;5092057;28;20036;-61
2023/12/06 01:35:15;;;;;;;34.33;13.88;;;;;;;2.29;94.01;100650.63;5091708;28;20036;-63
2023/12/06 01:37:40;;;;;;;38.00;14.73;;;;;;;2.30;94.32;100657.66;5091791;28;20093;-61
2023/12/06 01:40:06;;;;;;;39.47;16.00;;;;;;;2.29;93.76;100648.03;5091568;28;20038;-62
2023/12/06 01:42:31;;;;;;;31.40;13.65;;;;;;;2.32;94.07;100653.47;5092068;28;20031;-61
2023/12/06 01:44:57;;;;;;;36.53;14.00;;;;;;;2.30;93.65;100661.19;5091884;28;20115;-62
2023/12/06 01:47:25;;;;;;;37.13;15.03;;;;;;;2.28;94.07;100654.94;5091863;28;20031;-61
2023/12/06 01:49:51;;;;;;;38.22;14.02;;;;;;;2.30;94.64;100655.06;5090167;28;20032;-62
2023/12/06 01:54:39;;;;;;;36.20;14.90;;;;;;;2.27;94.19;100657.47;5067684;28;20381;-63
2023/12/06 01:57:05;;;;;;;35.73;14.47;;;;;;;2.25;94.51;100644.31;5067601;28;20123;-62
2023/12/06 01:59:31;;;;;;;33.83;14.63;;;;;;;2.27;94.26;100649.66;5058071;28;20111;-59
2023/12/06 02:01:57;;;;;;;35.92;14.50;;;;;;;2.25;94.76;100649.53;5047297;28;20393;-62
2023/12/06 02:04:22;;;;;;;32.57;13.60;;;;;;;2.27;94.88;100644.44;5047408;28;20045;-62
2023/12/06 02:06:48;;;;;;;43.97;17.00;;;;;;;2.29;94.49;100645.44;5047419;28;20409;-62
2023/12/06 02:09:14;;;;;;;33.70;13.93;;;;;;;2.28;94.81;100644.53;5046785;28;20451;-60
2023/12/06 02:11:40;;;;;;;32.83;13.80;;;;;;;2.28;94.80;100643.59;5047472;28;20041;-61
2023/12/06 02:14:05;;;;;;;34.42;14.98;;;;;;;2.28;94.15;100633.19;5047178;28;20036;-61
2023/12/06 02:16:31;;;;;;;36.93;15.20;;;;;;;2.25;94.87;100631.28;5043987;28;20041;-60
2023/12/06 02:18:56;;;;;;;42.83;14.87;;;;;;;2.28;95.01;100634.09;5034685;28;20397;-62
2023/12/06 02:21:22;;;;;;;38.25;14.98;;;;;;;2.29;94.84;100621.97;5027437;28;20041;-61
2023/12/06 02:23:49;;;;;;;33.70;12.83;;;;;;;2.30;94.95;100624.69;5027255;28;20098;-61
2023/12/06 02:26:14;;;;;;;37.67;14.73;;;;;;;2.29;94.96;100629.78;5027108;28;20033;-61
2023/12/06 02:28:39;;;;;;;34.77;15.13;;;;;;;2.29;94.78;100630.69;5026499;28;20068;-62
2023/12/06 02:31:05;;;;;;;34.97;13.97;;;;;;;2.29;95.01;100637.59;5026921;28;20569;-61
2023/12/06 02:33:33;;;;;;;35.87;13.73;;;;;;;2.25;95.02;100630.38;5026905;28;20038;-61
2023/12/06 02:36:01;;;;;;;36.03;13.30;;;;;;;2.27;94.80;100639.22;5027043;28;20037;-61
2023/12/06 02:38:28;;;;;;;33.88;14.85;;;;;;;2.26;95.11;100638.31;5026286;28;20049;-61
2023/12/06 02:40:56;;;;;;;41.08;14.20;;;;;;;2.27;94.83;100636.63;5026811;28;20046;-61
2023/12/06 02:43:22;;;;;;;36.50;14.35;;;;;;;2.30;95.03;100636.81;5024875;28;20037;-61
2023/12/06 02:45:47;;;;;;;40.13;14.23;;;;;;;2.29;95.04;100637.59;5025420;28;20085;-61
2023/12/06 02:48:12;;;;;;;43.00;16.97;;;;;;;2.28;95.51;100633.19;5026294;28;20034;-62
2023/12/06 02:50:38;;;;;;;33.93;14.20;;;;;;;2.29;95.45;100628.09;5064829;28;20379;-61
2023/12/06 02:53:03;;;;;;;36.10;14.33;;;;;;;2.29;95.51;100632.41;5063056;28;20033;-61
2023/12/06 02:55:29;;;;;;;35.27;13.87;;;;;;;2.27;95.37;100629.66;5047078;28;20048;-62
2023/12/06 02:57:54;;;;;;;36.63;14.20;;;;;;;2.28;95.58;100627.97;5046747;28;20037;-62
2023/12/06 03:00:19;;;;;;;35.63;15.00;;;;;;;2.27;95.50;100620.97;5045551;28;20038;-61
2023/12/06 03:02:45;;;;;;;37.07;15.10;;;;;;;2.26;95.12;100630.50;5044983;28;20375;-62
2023/12/06 03:05:11;;;;;;;38.00;15.10;;;;;;;2.23;95.35;100629.34;5028444;28;20541;-62
2023/12/06 03:07:36;;;;;;;34.77;14.33;;;;;;;2.25;95.98;100633.88;5013176;28;20046;-61
2023/12/06 03:10:02;;;;;;;33.97;13.93;;;;;;;2.27;95.65;100631.41;5012892;28;20387;-61
2023/12/06 03:12:28;;;;;;;37.67;14.40;;;;;;;2.28;95.80;100626.28;5021213;28;20040;-61
2023/12/06 03:14:53;;;;;;;39.77;14.47;;;;;;;2.28;95.66;100620.16;5033000;28;20041;-61
2023/12/06 03:17:19;;;;;;;37.63;15.77;;;;;;;2.29;95.80;100615.06;5033199;28;20152;-61
2023/12/06 03:19:45;;;;;;;36.33;14.70;;;;;;;2.31;95.86;100618.69;5032448;28;20485;-61
2023/12/06 03:22:11;;;;;;;35.35;13.35;;;;;;;2.34;96.12;100615.38;5032875;28;20041;-62
2023/12/06 03:24:36;;;;;;;38.45;14.98;;;;;;;2.34;95.75;100612.78;5032740;28;20514;-61
2023/12/06 03:27:01;;;;;;;33.40;14.03;;;;;;;2.34;95.84;100610.19;5032903;28;20041;-61
2023/12/06 03:29:27;;;;;;;34.43;13.73;;;;;;;2.34;95.91;100610.19;5032373;28;20116;-61
2023/12/06 03:31:52;;;;;;;36.77;14.67;;;;;;;2.33;96.13;100616.19;5032638;28;20465;-62
2023/12/06 03:34:17;;;;;;;39.92;15.93;;;;;;;2.34;96.14;100610.19;5032222;28;20033;-61
2023/12/06 03:36:43;;;;;;;39.10;12.40;;;;;;;2.35;95.91;100610.28;5032052;28;20136;-62
2023/12/06 03:39:08;;;;;;;35.77;13.03;;;;;;;2.37;96.09;100610.41;5031222;28;20120;-61
2023/12/06 03:41:33;;;;;;;41.43;16.50;;;;;;;2.34;95.98;100608.47;5031985;28;20045;-63
2023/12/06 03:43:59;;;;;;;38.53;14.87;;;;;;;2.34;96.28;100608.47;5032248;28;20493;-64
2023/12/06 03:46:24;;;;;;;36.90;13.90;;;;;;;2.37;96.20;100606.06;5030850;28;20029;-61
2023/12/06 03:48:52;;;;;;;39.40;13.63;;;;;;;2.35;95.80;100614.59;5035240;28;20766;-61
2023/12/06 03:51:18;;;;;;;35.17;14.55;;;;;;;2.31;95.93;100612.56;5051620;28;20116;-61
2023/12/06 03:53:43;;;;;;;34.60;14.10;;;;;;;2.30;96.17;100613.38;5051702;28;20124;-60
2023/12/06 03:56:08;;;;;;;34.60;13.63;;;;;;;2.32;96.50;100615.28;5051943;28;20056;-62
2023/12/06 03:58:35;;;;;;;34.90;14.17;;;;;;;2.33;96.24;100616.19;5051402;28;20036;-61
2023/12/06 04:01:01;;;;;;;33.65;13.20;;;;;;;2.34;96.41;100618.00;5046892;28;20535;-61
2023/12/06 04:03:26;;;;;;;38.23;15.00;;;;;;;2.35;96.47;100620.72;5031404;28;20029;-61
2023/12/06 04:05:52;;;;;;;34.13;13.00;;;;;;;2.36;95.96;100626.84;5031757;28;20175;-61
2023/12/06 04:08:17;;;;;;;34.72;13.75;;;;;;;2.37;96.63;100629.53;5031454;28;20037;-63
2023/12/06 04:10:42;;;;;;;37.03;14.67;;;;;;;2.37;96.60;100634.75;5031844;28;20040;-61
2023/12/06 04:13:08;;;;;;;39.87;14.47;;;;;;;2.38;96.57;100631.34;5031541;28;20124;-61
2023/12/06 04:15:33;;;;;;;30.80;14.43;;;;;;;2.38;96.74;100628.75;5031426;28;20505;-61
2023/12/06 04:17:59;;;;;;;37.78;14.82;;;;;;;2.37;96.17;100620.84;5031305;28;20136;-61
2023/12/06 04:20:24;;;;;;;34.57;14.03;;;;;;;2.37;96.66;100628.66;5031600;28;20493;-61
2023/12/06 04:22:50;;;;;;;33.37;14.60;;;;;;;2.38;96.38;100626.13;5031753;28;20035;-62
2023/12/06 04:25:15;;;;;;;33.57;13.50;;;;;;;2.37;96.34;100624.31;5031878;28;20033;-61
2023/12/06 04:27:41;;;;;;;32.38;14.15;;;;;;;2.38;96.36;100620.94;5031679;28;20067;-61
2023/12/06 04:30:06;;;;;;;38.33;14.73;;;;;;;2.35;96.91;100622.41;5030632;28;20469;-62
2023/12/06 04:32:32;;;;;;;34.67;13.65;;;;;;;2.37;96.47;100628.66;5031062;28;20140;-62
2023/12/06 04:34:57;;;;;;;34.00;14.33;;;;;;;2.40;96.98;100628.88;5030699;28;20053;-61
2023/12/06 04:37:23;;;;;;;34.47;15.10;;;;;;;2.37;96.79;100624.31;5031142;28;20061;-61
2023/12/06 04:39:48;;;;;;;34.53;13.93;;;;;;;2.37;96.40;100620.84;5030663;28;20041;-61
2023/12/06 04:42:14;;;;;;;34.97;13.33;;;;;;;2.38;96.93;100622.63;5031148;28;20276;-61
2023/12/06 04:47:08;;;;;;;35.72;14.55;;;;;;;2.41;96.74;100628.97;5108081;27;20370;-62
2023/12/06 04:49:34;;;;;;;34.50;15.43;;;;;;;2.41;96.38;100628.06;5118092;27;20547;-63
2023/12/06 04:52:01;;;;;;;42.65;17.52;;;;;;;2.42;96.48;100629.84;5128318;27;20110;-61
2023/12/06 04:54:26;;;;;;;42.33;15.33;;;;;;;2.40;96.82;100624.56;5128472;27;20099;-62
2023/12/06 04:56:52;;;;;;;38.10;13.02;;;;;;;2.41;96.67;100630.69;5128304;27;20495;-62
2023/12/06 04:59:17;;;;;;;36.13;14.43;;;;;;;2.41;96.42;100630.69;5127684;27;20520;-63
2023/12/06 05:01:45;;;;;;;38.03;13.50;;;;;;;2.42;96.88;100627.25;5128443;27;20035;-63
2023/12/06 05:04:11;;;;;;;41.30;14.17;;;;;;;2.43;96.58;100631.66;5127941;27;20304;-62
2023/12/06 05:06:36;;;;;;;40.27;15.20;;;;;;;2.41;96.60;100621.16;5121958;27;20042;-62
2023/12/06 05:09:02;;;;;;;41.27;15.33;;;;;;;2.40;96.55;100626.25;5107026;28;20347;-62
2023/12/06 05:11:27;;;;;;;39.00;16.00;;;;;;;2.40;96.74;100623.66;5107567;28;20484;-62
2023/12/06 05:13:52;;;;;;;33.93;14.60;;;;;;;2.41;97.19;100630.69;5107388;28;20043;-62
2023/12/06 05:16:18;;;;;;;38.53;13.93;;;;;;;2.41;97.01;100625.47;5107342;28;20504;-63
2023/12/06 05:18:43;;;;;;;39.43;15.83;;;;;;;2.41;97.17;100628.06;5106917;28;20277;-62
2023/12/06 05:21:09;;;;;;;40.77;15.37;;;;;;;2.40;96.99;100624.56;5106956;28;20403;-62
2023/12/06 05:23:34;;;;;;;33.03;15.20;;;;;;;2.39;96.85;100616.63;5107392;28;20040;-62
2023/12/06 05:26:00;;;;;;;42.13;18.30;;;;;;;2.38;97.06;100625.22;5107172;28;20036;-61
2023/12/06 05:28:26;;;;;;;34.50;14.03;;;;;;;2.37;97.04;100615.63;5106770;28;20046;-60
2023/12/06 05:30:52;;;;;;;37.78;15.07;;;;;;;2.38;96.87;100620.00;5107273;28;20039;-60
2023/12/06 05:33:17;;;;;;;44.27;17.13;;;;;;;2.39;97.25;100621.84;5107413;28;20039;-61
2023/12/06 05:35:45;;;;;;;39.97;14.32;;;;;;;2.39;96.99;100621.84;5107141;28;20036;-60
2023/12/06 05:38:10;;;;;;;36.20;15.48;;;;;;;2.40;96.94;100623.66;5106818;28;20404;-63
2023/12/06 05:40:35;;;;;;;42.73;16.43;;;;;;;2.43;97.16;100624.75;5106638;28;20038;-60
2023/12/06 05:43:02;;;;;;;35.67;14.07;;;;;;;2.43;96.87;100622.16;5107057;28;20036;-60
2023/12/06 05:45:27;;;;;;;39.13;16.33;;;;;;;2.43;96.84;100623.84;5106764;28;20380;-59
2023/12/06 05:47:52;;;;;;;43.37;17.23;;;;;;;2.43;97.44;100626.47;5107104;28;20133;-60
2023/12/06 05:50:18;;;;;;;39.83;15.57;;;;;;;2.44;97.00;100625.66;5123239;27;20042;-61
2023/12/06 05:52:43;;;;;;;36.47;15.73;;;;;;;2.44;96.85;100636.09;5127335;28;20117;-61
2023/12/06 05:55:08;;;;;;;38.47;15.23;;;;;;;2.42;97.32;100630.75;5127013;27;20118;-61
2023/12/06 05:57:34;;;;;;;36.33;15.37;;;;;;;2.42;97.20;100628.16;5118839;27;20297;-62
2023/12/06 05:59:59;;;;;;;39.87;16.00;;;;;;;2.40;97.19;100629.78;5112917;28;20122;-60
2023/12/06 06:02:24;;;;;;;42.47;16.40;;;;;;;2.41;97.50;100635.91;5097213;28;20499;-60
2023/12/06 06:04:50;;;;;;;40.13;15.90;;;;;;;2.42;97.55;100635.06;5087876;28;20037;-60
2023/12/06 06:07:16;;;;;;;36.90;14.97;;;;;;;2.42;97.61;100632.47;5086121;28;20404;-61
2023/12/06 06:09:41;;;;;;;40.50;15.87;;;;;;;2.41;97.25;100630.69;5082421;28;20290;-61
2023/12/06 06:12:07;;;;;;;40.22;15.38;;;;;;;2.42;97.58;100640.28;5081080;28;20028;-60
2023/12/06 06:14:33;;;;;;;37.77;15.63;;;;;;;2.43;97.55;100634.28;5082649;28;20040;-61
2023/12/06 06:17:00;;;;;;;46.22;18.80;;;;;;;2.40;97.26;100641.91;5092963;28;20143;-61
2023/12/06 06:19:25;;;;;;;42.83;16.63;;;;;;;2.41;97.17;100642.00;5091633;28;20028;-61
2023/12/06 06:24:20;;;;;;;41.83;17.70;;;;;;;2.43;97.67;100640.41;5072275;28;20374;-61
2023/12/06 06:26:46;;;;;;;41.77;16.97;;;;;;;2.44;97.76;100642.22;5083619;28;20104;-63
2023/12/06 06:29:12;;;;;;;42.67;16.42;;;;;;;2.43;96.96;100634.28;5066428;28;20090;-63
2023/12/06 06:31:37;;;;;;;46.00;16.80;;;;;;;2.42;97.34;100648.09;5075807;28;20070;-62
2023/12/06 06:34:02;;;;;;;43.65;16.88;;;;;;;2.41;97.23;100642.00;5087048;28;20119;-63
2023/12/06 06:36:28;;;;;;;42.43;16.33;;;;;;;2.39;97.15;100647.91;5087116;28;20110;-63
2023/12/06 06:38:55;;;;;;;50.90;19.73;;;;;;;2.40;97.24;100647.09;5086706;28;20064;-62
2023/12/06 06:41:21;;;;;;;41.53;15.87;;;;;;;2.38;97.46;100652.19;5068507;28;20037;-63
2023/12/06 06:43:46;;;;;;;39.78;15.73;;;;;;;2.35;97.67;100651.09;5066708;28;20036;-62
2023/12/06 06:46:12;;;;;;;44.60;15.90;;;;;;;2.35;97.44;100656.31;5066614;28;20401;-63
2023/12/06 06:48:38;;;;;;;34.47;14.75;;;;;;;2.34;97.38;100646.66;5068987;28;20490;-62
2023/12/06 06:51:03;;;;;;;40.50;17.53;;;;;;;2.30;97.48;100661.19;5087154;28;20048;-62
2023/12/06 06:53:29;;;;;;;39.05;15.98;;;;;;;2.30;97.60;100657.66;5081997;28;20037;-61
2023/12/06 06:55:54;;;;;;;40.93;16.10;;;;;;;2.29;97.85;100651.53;5046875;28;20112;-62
2023/12/06 06:58:19;;;;;;;35.67;14.03;;;;;;;2.28;98.01;100654.94;5081759;28;20810;-62
2023/12/06 07:00:45;;;;;;;38.73;15.17;;;;;;;2.29;97.69;100666.28;5086524;28;20043;-62
2023/12/06 07:03:11;;;;;;;44.70;16.20;;;;;;;2.29;97.80;100666.28;5086084;28;20036;-62
2023/12/06 07:05:37;;;;;;;43.93;17.30;;;;;;;2.30;97.77;100663.78;5086387;28;20290;-63
2023/12/06 07:08:02;;;;;;;45.70;17.85;;;;;;;2.25;97.60;100670.38;5086840;28;20426;-62
2023/12/06 07:10:28;;;;;;;41.17;17.77;;;;;;;2.25;97.75;100675.59;5086130;28;20119;-63
2023/12/06 07:12:53;;;;;;;44.85;16.10;;;;;;;2.27;97.87;100678.31;5086415;28;20028;-63
2023/12/06 07:15:19;;;;;;;40.23;16.80;;;;;;;2.30;98.13;100679.44;5085278;28;20094;-63
2023/12/06 07:17:45;;;;;;;47.43;17.07;;;;;;;2.31;97.59;100680.34;5086562;28;20033;-62
2023/12/06 07:20:11;;;;;;;45.65;18.55;;;;;;;2.31;98.05;100680.34;5085747;28;20082;-63
2023/12/06 07:22:37;;;;;;;46.03;18.25;;;;;;;2.29;97.66;100676.69;5076239;28;20485;-63
2023/12/06 07:25:04;;;;;;;43.80;17.77;;;;;;;2.29;98.22;100679.31;5066032;28;20051;-63
2023/12/06 07:27:29;;;;;;;39.40;17.10;;;;;;;2.30;98.21;100674.22;5065940;28;20036;-63
2023/12/06 07:29:55;;;;;;;37.47;16.47;;;;;;;2.32;98.18;100682.16;5066044;28;20162;-62
2023/12/06 07:32:21;;;;;;;40.42;14.80;;;;;;;2.31;98.30;100682.94;5065686;28;20572;-63
2023/12/06 07:34:47;;;;;;;42.83;16.00;;;;;;;2.32;97.87;100685.63;5057576;28;20045;-63
2023/12/06 07:37:12;;;;;;;44.10;18.17;;;;;;;2.33;97.83;100684.84;5052511;28;20106;-62
2023/12/06 07:39:37;;;;;;;48.13;19.33;;;;;;;2.36;98.03;100686.78;5052043;28;20116;-63
2023/12/06 07:42:03;;;;;;;46.07;17.13;;;;;;;2.41;98.04;100695.84;5052373;28;20059;-61
2023/12/06 07:44:28;;;;;;;42.00;16.42;;;;;;;2.40;97.86;100694.03;5034972;28;20052;-62
2023/12/06 07:46:54;;;;;;;39.97;16.07;;;;;;;2.40;97.93;100697.53;5032834;28;20042;-62
2023/12/06 07:49:19;;;;;;;40.63;16.90;;;;;;;2.42;97.76;100695.94;5048876;28;20119;-62
2023/12/06 07:51:44;;;;;;;45.60;18.30;;;;;;;2.40;97.88;100702.75;5072529;28;20539;-63
2023/12/06 07:54:10;;;;;;;43.33;17.43;;;;;;;2.41;97.63;100699.34;5072141;28;20112;-64
2023/12/06 07:56:35;;;;;;;44.85;16.77;;;;;;;2.41;97.84;100701.06;5072221;28;20495;-62
2023/12/06 07:59:01;;;;;;;45.37;16.67;;;;;;;2.41;97.70;100699.34;5070392;28;20127;-62
2023/12/06 08:01:31;;;;;;;39.97;15.65;;;;;;;2.42;97.87;100708.06;5071823;28;20040;-64
2023/12/06 08:03:57;;;;;;;39.63;16.07;;;;;;;2.39;97.39;100705.22;5039793;28;20119;-63
2023/12/06 08:06:23;;;;;;;39.75;16.58;;;;;;;2.40;97.74;100707.06;5052119;28;20090;-63
2023/12/06 08:08:50;;;;;;;42.28;17.17;;;;;;;2.41;97.64;100707.19;5051933;28;20582;-63
2023/12/06 08:11:16;;;;;;;45.13;18.55;;;;;;;2.47;97.87;100712.81;5052715;28;20041;-62
2023/12/06 08:13:41;;;;;;;36.53;13.47;;;;;;;2.51;97.48;100708.75;5052195;28;20098;-64
2023/12/06 08:16:07;;;;;;;38.05;16.05;;;;;;;2.52;96.92;100707.91;5052774;28;20040;-65
2023/12/06 08:18:32;;;;;;;41.83;16.70;;;;;;;2.58;97.51;100706.66;5051649;28;20037;-64
2023/12/06 08:20:58;;;;;;;38.80;15.93;;;;;;;2.63;97.39;100714.81;5052266;28;20035;-63
2023/12/06 08:23:23;;;;;;;43.83;18.83;;;;;;;2.67;96.84;100718.53;5051696;28;20037;-61
2023/12/06 08:25:48;;;;;;;45.20;17.83;;;;;;;2.65;97.16;100720.16;5051873;28;20036;-63
2023/12/06 08:28:16;;;;;;;41.97;18.00;;;;;;;2.64;97.08;100714.03;5051903;28;20366;-61
2023/12/06 08:30:41;;;;;;;42.03;16.88;;;;;;;2.65;97.17;100726.28;5051729;28;20039;-61
2023/12/06 08:33:07;;;;;;;39.90;16.30;;;;;;;2.67;96.82;100719.44;5051978;28;20033;-61
2023/12/06 08:35:32;;;;;;;37.20;14.60;;;;;;;2.67;96.60;100719.44;5051635;28;20056;-60
2023/12/06 08:37:58;;;;;;;38.40;15.37;;;;;;;2.69;96.37;100724.78;5051787;28;20119;-61
2023/12/06 08:40:26;;;;;;;42.08;16.40;;;;;;;2.69;96.44;100717.88;5051025;28;20547;-61
2023/12/06 08:42:51;;;;;;;42.57;15.80;;;;;;;2.69;96.41;100720.47;5051569;28;20044;-61
2023/12/06 08:45:17;;;;;;;40.00;16.70;;;;;;;2.70;96.65;100724.91;5051437;28;20485;-60
2023/12/06 08:47:42;;;;;;;42.27;16.80;;;;;;;2.73;96.38;100722.50;5051081;28;20079;-63
2023/12/06 08:50:08;;;;;;;45.00;17.50;;;;;;;2.75;96.43;100718.31;5065900;28;20049;-60
2023/12/06 08:52:34;;;;;;;41.80;15.40;;;;;;;2.74;96.06;100721.72;5071391;28;20546;-63
2023/12/06 08:55:00;;;;;;;39.00;15.27;;;;;;;2.71;96.15;100718.91;5071547;28;20064;-59
2023/12/06 08:57:25;;;;;;;38.80;15.70;;;;;;;2.72;96.53;100720.69;5071415;28;20491;-62
2023/12/06 08:59:50;;;;;;;42.37;16.87;;;;;;;2.71;96.32;100715.38;5070798;28;20086;-60
2023/12/06 09:02:16;;;;;;;42.93;16.67;;;;;;;2.73;96.30;100725.09;5071138;28;20119;-61
2023/12/06 09:04:41;;;;;;;42.87;16.37;;;;;;;2.74;96.62;100729.53;5071285;28;20114;-61
2023/12/06 09:07:07;;;;;;;48.43;17.03;;;;;;;2.77;96.75;100732.34;5071146;28;20278;-62
2023/12/06 09:09:32;;;;;;;41.30;15.53;;;;;;;2.75;96.62;100725.22;5070472;28;20158;-62
2023/12/06 09:11:58;;;;;;;41.07;17.20;;;;;;;2.74;96.19;100732.13;5071261;28;20042;-62
2023/12/06 09:14:24;;;;;;;43.45;17.30;;;;;;;2.78;96.53;100733.25;5071059;28;20032;-62
2023/12/06 09:16:49;;;;;;;44.13;17.47;;;;;;;2.81;96.91;100739.59;5070869;28;20473;-62
2023/12/06 09:19:16;;;;;;;44.22;17.33;;;;;;;2.85;96.47;100739.03;5070447;28;20033;-63
2023/12/06 09:21:46;;;;;;;43.17;16.90;;;;;;;2.89;96.06;100748.88;5070924;28;20432;-60
2023/12/06 09:24:15;;;;;;;47.67;17.67;;;;;;;2.89;95.94;100743.66;5070689;28;20041;-62
2023/12/06 09:26:42;;;;;;;44.97;17.53;;;;;;;2.89;96.45;100741.06;5071084;28;20037;-61
2023/12/06 09:29:09;;;;;;;42.78;18.00;;;;;;;2.92;96.29;100753.41;5070721;28;20062;-61
2023/12/06 09:31:34;;;;;;;41.42;17.10;;;;;;;2.93;96.14;100748.28;5070726;28;20032;-62
2023/12/06 09:34:01;;;;;;;45.90;15.57;;;;;;;2.96;96.30;100752.84;5069072;28;20032;-61
2023/12/06 09:36:28;;;;;;;42.35;17.00;;;;;;;2.97;96.15;100747.72;5070432;28;20740;-61
2023/12/06 09:38:57;;;;;;;39.40;14.52;;;;;;;3.02;96.45;100748.94;5070040;28;20384;-61
2023/12/06 09:41:32;;;;;;;38.22;15.27;;;;;;;3.07;96.21;100753.56;5070663;28;20036;-62
2023/12/06 09:43:59;;;;;;;41.70;16.20;;;;;;;3.06;95.44;100750.06;5052789;28;20036;-62
2023/12/06 09:46:25;;;;;;;41.17;16.90;;;;;;;3.06;95.68;100749.19;5050350;28;20066;-62
2023/12/06 09:48:52;;;;;;;41.85;17.25;;;;;;;3.07;95.84;100748.34;5054580;28;20044;-64
2023/12/06 09:51:19;;;;;;;43.25;17.33;;;;;;;3.08;95.84;100750.16;5070443;28;20032;-62
2023/12/06 09:53:44;;;;;;;41.55;16.42;;;;;;;3.10;95.50;100749.50;5070439;28;20469;-62
2023/12/06 09:56:10;;;;;;;42.07;16.83;;;;;;;3.14;95.57;100754.13;5070298;28;20033;-62
2023/12/06 09:58:36;;;;;;;39.85;15.68;;;;;;;3.16;95.50;100757.72;5057723;28;20029;-65
2023/12/06 10:01:03;;;;;;;39.80;15.95;;;;;;;3.22;95.26;100752.03;5050208;28;20052;-62
2023/12/06 10:03:28;;;;;;;44.63;17.08;;;;;;;3.28;94.91;100752.47;5049581;28;20416;-63
2023/12/06 10:05:56;;;;;;;35.23;15.27;;;;;;;3.29;94.98;100749.97;5050275;28;20033;-63
2023/12/06 10:08:22;;;;;;;39.78;16.60;;;;;;;3.36;94.68;100754.81;5049807;28;20029;-62
2023/12/06 10:10:48;;;;;;;39.80;14.97;;;;;;;3.39;94.36;100752.44;5050249;28;20083;-62
2023/12/06 10:13:13;;;;;;;41.33;16.83;;;;;;;3.39;94.53;100748.91;5049885;28;20493;-62
2023/12/06 10:15:39;;;;;;;45.50;16.10;;;;;;;3.36;94.62;100744.38;5050115;28;20287;-63
2023/12/06 10:18:04;;;;;;;40.93;17.33;;;;;;;3.42;94.44;100746.50;5049910;28;20064;-63
2023/12/06 10:20:30;;;;;;;37.83;15.48;;;;;;;3.40;94.07;100749.00;5048794;28;20036;-62
2023/12/06 10:22:55;;;;;;;44.43;16.93;;;;;;;3.35;94.03;100747.78;5049581;28;20117;-62
2023/12/06 10:25:21;;;;;;;38.43;16.17;;;;;;;3.36;94.26;100749.59;5049815;28;20037;-62
2023/12/06 10:27:46;;;;;;;40.30;16.00;;;;;;;3.39;94.42;100748.91;5050085;28;20052;-61
2023/12/06 10:30:20;;;;;;;39.73;16.33;;;;;;;3.40;94.46;100750.72;5049285;28;20112;-61
2023/12/06 10:32:46;;;;;;;38.78;17.17;;;;;;;3.42;94.47;100742.19;5049862;28;20029;-61
2023/12/06 10:35:11;;;;;;;37.87;16.57;;;;;;;3.43;94.15;100743.09;5050016;28;20124;-61
2023/12/06 10:37:38;;;;;;;44.67;16.60;;;;;;;3.43;94.00;100743.09;5050312;28;20054;-61
2023/12/06 10:40:10;;;;;;;38.45;15.60;;;;;;;3.44;94.14;100743.22;5049724;28;20037;-62
2023/12/06 10:42:38;;;;;;;42.47;17.88;;;;;;;3.46;93.92;100741.59;5050031;28;20060;-62
2023/12/06 10:45:04;;;;;;;39.83;16.27;;;;;;;3.45;93.66;100741.50;5050118;28;20052;-62
2023/12/06 10:47:31;;;;;;;39.00;16.73;;;;;;;3.40;93.88;100737.66;5049736;28;20036;-62
2023/12/06 10:49:56;;;;;;;44.27;16.80;;;;;;;3.38;94.04;100739.25;5063316;28;20048;-62
2023/12/06 10:52:23;;;;;;;46.20;17.98;;;;;;;3.38;94.09;100741.88;5070136;28;20078;-62
2023/12/06 10:54:49;;;;;;;36.30;16.10;;;;;;;3.40;94.20;100738.53;5040098;28;20064;-62
2023/12/06 10:57:17;;;;;;;40.60;16.27;;;;;;;3.42;94.27;100739.56;5029552;28;20051;-62
2023/12/06 10:59:45;;;;;;;49.20;18.97;;;;;;;3.39;94.47;100736.75;5029065;28;20057;-62
2023/12/06 11:02:11;;;;;;;43.35;16.67;;;;;;;3.43;94.22;100740.47;5029810;28;20034;-62
2023/12/06 11:04:41;;;;;;;40.13;16.33;;;;;;;3.44;94.09;100740.59;5029894;28;20042;-62
2023/12/06 11:07:23;;;;;;;39.05;15.52;;;;;;;3.44;93.98;100729.25;5029747;28;20037;-62
2023/12/06 11:10:09;;;;;;;35.33;15.63;;;;;;;3.49;93.75;100735.69;5031112;28;20103;-62
2023/12/06 11:12:52;;;;;;;38.00;16.50;;;;;;;3.51;93.86;100728.84;5034078;28;20381;-61
2023/12/06 11:15:36;;;;;;;38.88;15.13;;;;;;;3.53;93.54;100737.69;5033805;28;20044;-62
2023/12/06 11:18:16;;;;;;;40.53;16.15;;;;;;;3.53;93.35;100736.78;5033691;28;20052;-62